KDAB/DAB METAR and TAF weather

Enter ICAO airport designator
Station Type Date Time Source
KDAB METAR 2018/12/12 23:53 UTC NOAA

KDAB 122353Z 00000KT 10SM BKN250 11/09 A3026 RMK AO2 SLP246 T01110089 10189 20111 53009


Station Type Date Time Source
KDAB Decoded METAR 2018/12/12 23:53 UTC NOAA

DAYTONA BEACH INTERNATIONAL, FL, United States (KDAB) 29-10N 81-04W 9M
Dec 12, 2018 - 06:53 PM EST / 2018.12.12 2353 UTC
Wind: Calm:0
Visibility: 10 mile(s):0
Sky conditions: mostly cloudy
Temperature: 52.0 F (11.1 C)
Dew Point: 48.0 F (8.9 C)
Relative Humidity: 86%
Pressure (altimeter): 30.26 in. Hg (1024 hPa)
Pressure tendency: 0.03 inches (0.9 hPa) higher than three hours ago
ob: KDAB 122353Z 00000KT 10SM BKN250 11/09 A3026 RMK AO2 SLP246 T01110089 10189 20111 53009
cycle: 0

Station Type Date Time Source
KDAB TAF 2018/12/12 18:34 UTC NOAA

TAF KDAB 121731Z 1218/1318 26004KT P6SM SCT250
FM121900 08005KT P6SM SCT250
FM130000 VRB02KT P6SM SCT250
FM130900 00000KT P6SM BKN040
FM131400 05006KT P6SM BKN040


Example: see airport list